sensor_id;sensor_type;location;lat;lon;timestamp;temperature;humidity
24250;DHT22;12379;49.820;8.648;2023-03-01T00:01:12;-0.60;99.90
24250;DHT22;12379;49.820;8.648;2023-03-01T00:03:38;-0.60;99.90
24250;DHT22;12379;49.820;8.648;2023-03-01T00:06:05;-0.70;99.90
24250;DHT22;12379;49.820;8.648;2023-03-01T00:08:31;-0.60;99.90
24250;DHT22;12379;49.820;8.648;2023-03-01T00:11:14;-0.60;99.90
24250;DHT22;12379;49.820;8.648;2023-03-01T00:13:40;-0.60;99.90
24250;DHT22;12379;49.820;8.648;2023-03-01T00:16:12;-0.60;99.90
24250;DHT22;12379;49.820;8.648;2023-03-01T00:18:39;-0.60;99.90
24250;DHT22;12379;49.820;8.648;2023-03-01T00:21:05;-0.50;99.90
24250;DHT22;12379;49.820;8.648;2023-03-01T00:23:31;-0.40;99.90
24250;DHT22;12379;49.820;8.648;2023-03-01T00:25:57;-0.50;99.90
24250;DHT22;12379;49.820;8.648;2023-03-01T00:28:23;-0.50;99.90
24250;DHT22;12379;49.820;8.648;2023-03-01T00:30:49;-0.50;99.90
24250;DHT22;12379;49.820;8.648;2023-03-01T00:33:14;-0.40;99.90
24250;DHT22;12379;49.820;8.648;2023-03-01T00:35:40;-0.50;99.90
24250;DHT22;12379;49.820;8.648;2023-03-01T00:38:06;-0.40;99.90
24250;DHT22;12379;49.820;8.648;2023-03-01T00:40:34;-0.40;99.90
24250;DHT22;12379;49.820;8.648;2023-03-01T00:43:00;-0.30;99.90
24250;DHT22;12379;49.820;8.648;2023-03-01T00:45:26;-0.30;99.90
24250;DHT22;12379;49.820;8.648;2023-03-01T00:47:52;-0.20;99.90
24250;DHT22;12379;49.820;8.648;2023-03-01T00:50:19;-0.20;99.90
24250;DHT22;12379;49.820;8.648;2023-03-01T00:52:45;-0.30;99.90
24250;DHT22;12379;49.820;8.648;2023-03-01T00:55:11;-0.40;99.90
24250;DHT22;12379;49.820;8.648;2023-03-01T00:57:38;-0.30;99.90
24250;DHT22;12379;49.820;8.648;2023-03-01T01:00:07;-0.30;99.90
24250;DHT22;12379;49.820;8.648;2023-03-01T01:02:34;-0.40;99.90
24250;DHT22;12379;49.820;8.648;2023-03-01T01:05:00;-0.40;99.90
24250;DHT22;12379;49.820;8.648;2023-03-01T01:07:25;-0.40;99.90
24250;DHT22;12379;49.820;8.648;2023-03-01T01:09:51;-0.50;99.90
24250;DHT22;12379;49.820;8.648;2023-03-01T01:12:16;-0.60;99.90
24250;DHT22;12379;49.820;8.648;2023-03-01T01:14:42;-0.60;99.90
24250;DHT22;12379;49.820;8.648;2023-03-01T01:17:07;-0.60;99.90
24250;DHT22;12379;49.820;8.648;2023-03-01T01:19:33;-0.60;99.90
24250;DHT22;12379;49.820;8.648;2023-03-01T01:21:58;-0.60;99.90
24250;DHT22;12379;49.820;8.648;2023-03-01T01:24:24;-0.60;99.90
24250;DHT22;12379;49.820;8.648;2023-03-01T01:26:49;-0.60;99.90
24250;DHT22;12379;49.820;8.648;2023-03-01T01:29:15;-0.60;99.90
24250;DHT22;12379;49.820;8.648;2023-03-01T01:31:42;-0.60;99.90
24250;DHT22;12379;49.820;8.648;2023-03-01T01:34:14;-0.60;99.90
24250;DHT22;12379;49.820;8.648;2023-03-01T01:36:40;-0.70;99.90
24250;DHT22;12379;49.820;8.648;2023-03-01T01:39:06;-0.60;99.90
24250;DHT22;12379;49.820;8.648;2023-03-01T01:41:33;-0.60;99.90
24250;DHT22;12379;49.820;8.648;2023-03-01T01:44:21;-0.60;99.90
24250;DHT22;12379;49.820;8.648;2023-03-01T01:46:55;-0.50;99.90
24250;DHT22;12379;49.820;8.648;2023-03-01T01:49:27;-0.50;99.90
24250;DHT22;12379;49.820;8.648;2023-03-01T01:52:11;-0.50;99.90
24250;DHT22;12379;49.820;8.648;2023-03-01T01:54:49;-0.50;99.90
24250;DHT22;12379;49.820;8.648;2023-03-01T01:57:40;-0.40;99.90
24250;DHT22;12379;49.820;8.648;2023-03-01T02:00:28;-0.50;99.90
24250;DHT22;12379;49.820;8.648;2023-03-01T02:03:00;-0.50;99.90
24250;DHT22;12379;49.820;8.648;2023-03-01T02:08:23;-0.50;99.90
24250;DHT22;12379;49.820;8.648;2023-03-01T02:10:49;-0.60;99.90
24250;DHT22;12379;49.820;8.648;2023-03-01T02:13:16;-0.50;99.90
24250;DHT22;12379;49.820;8.648;2023-03-01T02:15:42;-0.60;99.90
24250;DHT22;12379;49.820;8.648;2023-03-01T02:18:11;-0.60;99.90
24250;DHT22;12379;49.820;8.648;2023-03-01T02:23:28;-0.40;99.90
24250;DHT22;12379;49.820;8.648;2023-03-01T02:26:20;-0.30;99.90
24250;DHT22;12379;49.820;8.648;2023-03-01T02:28:48;-0.30;99.90
24250;DHT22;12379;49.820;8.648;2023-03-01T02:31:19;-0.30;99.90
24250;DHT22;12379;49.820;8.648;2023-03-01T02:34:04;-0.40;99.90
24250;DHT22;12379;49.820;8.648;2023-03-01T02:36:35;-0.40;99.90
24250;DHT22;12379;49.820;8.648;2023-03-01T02:39:05;-0.40;99.90
24250;DHT22;12379;49.820;8.648;2023-03-01T02:41:35;-0.40;99.90
24250;DHT22;12379;49.820;8.648;2023-03-01T02:44:02;-0.30;99.90
24250;DHT22;12379;49.820;8.648;2023-03-01T02:46:28;-0.40;99.90
24250;DHT22;12379;49.820;8.648;2023-03-01T02:48:57;-0.40;99.90
24250;DHT22;12379;49.820;8.648;2023-03-01T02:51:52;-0.40;99.90
24250;DHT22;12379;49.820;8.648;2023-03-01T02:54:30;-0.40;99.90
24250;DHT22;12379;49.820;8.648;2023-03-01T02:56:57;-0.40;99.90
24250;DHT22;12379;49.820;8.648;2023-03-01T02:59:27;-0.40;99.90
24250;DHT22;12379;49.820;8.648;2023-03-01T03:01:53;-0.40;99.90
24250;DHT22;12379;49.820;8.648;2023-03-01T03:04:19;-0.50;99.90
24250;DHT22;12379;49.820;8.648;2023-03-01T03:06:47;-0.50;99.90
24250;DHT22;12379;49.820;8.648;2023-03-01T03:09:14;-0.50;99.90
24250;DHT22;12379;49.820;8.648;2023-03-01T03:11:40;-0.60;99.90
24250;DHT22;12379;49.820;8.648;2023-03-01T03:14:07;-0.60;99.90
24250;DHT22;12379;49.820;8.648;2023-03-01T03:16:40;-0.60;99.90
24250;DHT22;12379;49.820;8.648;2023-03-01T03:19:05;-0.60;99.90
24250;DHT22;12379;49.820;8.648;2023-03-01T03:21:32;-0.50;99.90
24250;DHT22;12379;49.820;8.648;2023-03-01T03:23:58;-0.60;99.90
24250;DHT22;12379;49.820;8.648;2023-03-01T03:26:24;-0.60;99.90
24250;DHT22;12379;49.820;8.648;2023-03-01T03:28:49;-0.60;99.90
24250;DHT22;12379;49.820;8.648;2023-03-01T03:31:15;-0.60;99.90
24250;DHT22;12379;49.820;8.648;2023-03-01T03:33:40;-0.50;99.90
24250;DHT22;12379;49.820;8.648;2023-03-01T03:36:06;-0.60;99.90
24250;DHT22;12379;49.820;8.648;2023-03-01T03:38:32;-0.60;99.90
24250;DHT22;12379;49.820;8.648;2023-03-01T03:41:06;-0.60;99.90
24250;DHT22;12379;49.820;8.648;2023-03-01T03:43:34;-0.60;99.90
24250;DHT22;12379;49.820;8.648;2023-03-01T03:46:00;-0.50;99.90
24250;DHT22;12379;49.820;8.648;2023-03-01T03:48:26;-0.60;99.90
24250;DHT22;12379;49.820;8.648;2023-03-01T03:50:55;-0.60;99.90
24250;DHT22;12379;49.820;8.648;2023-03-01T03:53:22;-0.60;99.90
24250;DHT22;12379;49.820;8.648;2023-03-01T03:55:49;-0.60;99.90
24250;DHT22;12379;49.820;8.648;2023-03-01T03:58:15;-0.60;99.90
24250;DHT22;12379;49.820;8.648;2023-03-01T04:00:43;-0.60;99.90
24250;DHT22;12379;49.820;8.648;2023-03-01T04:03:10;-0.50;99.90
24250;DHT22;12379;49.820;8.648;2023-03-01T04:05:37;-0.50;99.90
24250;DHT22;12379;49.820;8.648;2023-03-01T04:08:03;-0.50;99.90
24250;DHT22;12379;49.820;8.648;2023-03-01T04:10:37;-0.40;99.90
24250;DHT22;12379;49.820;8.648;2023-03-01T04:13:04;-0.40;99.90
24250;DHT22;12379;49.820;8.648;2023-03-01T04:15:31;-0.40;99.90
24250;DHT22;12379;49.820;8.648;2023-03-01T04:17:58;-0.40;99.90
24250;DHT22;12379;49.820;8.648;2023-03-01T04:20:29;-0.40;99.90
24250;DHT22;12379;49.820;8.648;2023-03-01T04:25:40;-0.40;99.90
24250;DHT22;12379;49.820;8.648;2023-03-01T04:28:06;-0.40;99.90
24250;DHT22;12379;49.820;8.648;2023-03-01T04:30:32;-0.40;99.90
24250;DHT22;12379;49.820;8.648;2023-03-01T04:33:02;-0.30;99.90
24250;DHT22;12379;49.820;8.648;2023-03-01T04:35:29;-0.30;99.90
24250;DHT22;12379;49.820;8.648;2023-03-01T04:37:54;-0.30;99.90
24250;DHT22;12379;49.820;8.648;2023-03-01T04:40:20;-0.30;99.90
24250;DHT22;12379;49.820;8.648;2023-03-01T04:42:46;-0.30;99.90
24250;DHT22;12379;49.820;8.648;2023-03-01T04:45:12;-0.30;99.90
24250;DHT22;12379;49.820;8.648;2023-03-01T04:47:42;-0.30;99.90
24250;DHT22;12379;49.820;8.648;2023-03-01T04:50:10;-0.30;99.90
24250;DHT22;12379;49.820;8.648;2023-03-01T04:52:36;-0.20;99.90
24250;DHT22;12379;49.820;8.648;2023-03-01T04:55:02;-0.20;99.90
24250;DHT22;12379;49.820;8.648;2023-03-01T04:57:29;-0.20;99.90
24250;DHT22;12379;49.820;8.648;2023-03-01T04:59:54;-0.20;99.90
24250;DHT22;12379;49.820;8.648;2023-03-01T05:02:20;-0.20;99.90
24250;DHT22;12379;49.820;8.648;2023-03-01T05:04:45;-0.20;99.90
24250;DHT22;12379;49.820;8.648;2023-03-01T05:07:11;-0.30;99.90
24250;DHT22;12379;49.820;8.648;2023-03-01T05:09:38;-0.30;99.90
24250;DHT22;12379;49.820;8.648;2023-03-01T05:12:04;-0.30;99.90
24250;DHT22;12379;49.820;8.648;2023-03-01T05:14:30;-0.40;99.90
24250;DHT22;12379;49.820;8.648;2023-03-01T05:16:55;-0.40;99.90
24250;DHT22;12379;49.820;8.648;2023-03-01T05:19:29;-0.40;99.90
24250;DHT22;12379;49.820;8.648;2023-03-01T05:21:56;-0.40;99.90
24250;DHT22;12379;49.820;8.648;2023-03-01T05:24:33;-0.30;99.90
24250;DHT22;12379;49.820;8.648;2023-03-01T05:26:59;-0.40;99.90
24250;DHT22;12379;49.820;8.648;2023-03-01T05:29:26;-0.30;99.90
24250;DHT22;12379;49.820;8.648;2023-03-01T05:31:54;-0.20;99.90
24250;DHT22;12379;49.820;8.648;2023-03-01T05:34:33;-0.30;99.90
24250;DHT22;12379;49.820;8.648;2023-03-01T05:36:59;-0.30;99.90
24250;DHT22;12379;49.820;8.648;2023-03-01T05:39:27;-0.30;99.90
24250;DHT22;12379;49.820;8.648;2023-03-01T05:41:55;-0.30;99.90
24250;DHT22;12379;49.820;8.648;2023-03-01T05:44:20;-0.30;99.90
24250;DHT22;12379;49.820;8.648;2023-03-01T05:46:46;-0.30;99.90
24250;DHT22;12379;49.820;8.648;2023-03-01T05:49:12;-0.30;99.90
24250;DHT22;12379;49.820;8.648;2023-03-01T05:51:42;-0.30;99.90
24250;DHT22;12379;49.820;8.648;2023-03-01T05:54:09;-0.30;99.90
24250;DHT22;12379;49.820;8.648;2023-03-01T05:56:35;-0.30;99.90
24250;DHT22;12379;49.820;8.648;2023-03-01T05:59:02;-0.30;99.90
24250;DHT22;12379;49.820;8.648;2023-03-01T06:01:28;-0.30;99.90
24250;DHT22;12379;49.820;8.648;2023-03-01T06:03:55;-0.20;99.90
24250;DHT22;12379;49.820;8.648;2023-03-01T06:06:21;-0.20;99.90
24250;DHT22;12379;49.820;8.648;2023-03-01T06:08:46;-0.30;99.90
24250;DHT22;12379;49.820;8.648;2023-03-01T06:11:12;-0.30;99.90
24250;DHT22;12379;49.820;8.648;2023-03-01T06:13:37;-0.30;99.90
24250;DHT22;12379;49.820;8.648;2023-03-01T06:16:07;-0.30;99.90
24250;DHT22;12379;49.820;8.648;2023-03-01T06:18:33;-0.30;99.90
24250;DHT22;12379;49.820;8.648;2023-03-01T06:20:59;-0.30;99.90
24250;DHT22;12379;49.820;8.648;2023-03-01T06:23:25;-0.20;99.90
24250;DHT22;12379;49.820;8.648;2023-03-01T06:25:51;-0.10;99.90
24250;DHT22;12379;49.820;8.648;2023-03-01T06:28:16;-0.10;99.90
24250;DHT22;12379;49.820;8.648;2023-03-01T06:30:42;-0.10;99.90
24250;DHT22;12379;49.820;8.648;2023-03-01T06:33:07;-0.10;99.90
24250;DHT22;12379;49.820;8.648;2023-03-01T06:35:33;0.00;99.90
24250;DHT22;12379;49.820;8.648;2023-03-01T06:38:00;0.00;99.90
24250;DHT22;12379;49.820;8.648;2023-03-01T06:40:26;0.10;99.90
24250;DHT22;12379;49.820;8.648;2023-03-01T06:42:54;0.10;99.90
24250;DHT22;12379;49.820;8.648;2023-03-01T06:45:21;0.20;99.90
24250;DHT22;12379;49.820;8.648;2023-03-01T06:47:47;0.40;99.90
24250;DHT22;12379;49.820;8.648;2023-03-01T06:50:13;0.50;99.90
24250;DHT22;12379;49.820;8.648;2023-03-01T06:52:39;0.60;99.90
24250;DHT22;12379;49.820;8.648;2023-03-01T06:55:06;0.60;99.90
24250;DHT22;12379;49.820;8.648;2023-03-01T06:57:31;0.70;99.90
24250;DHT22;12379;49.820;8.648;2023-03-01T06:59:57;0.80;99.90
24250;DHT22;12379;49.820;8.648;2023-03-01T07:02:23;0.90;99.90
24250;DHT22;12379;49.820;8.648;2023-03-01T07:04:49;1.00;99.90
24250;DHT22;12379;49.820;8.648;2023-03-01T07:07:15;1.00;99.90
24250;DHT22;12379;49.820;8.648;2023-03-01T07:09:44;1.20;99.90
24250;DHT22;12379;49.820;8.648;2023-03-01T07:12:09;1.30;99.90
24250;DHT22;12379;49.820;8.648;2023-03-01T07:14:35;1.40;99.90
24250;DHT22;12379;49.820;8.648;2023-03-01T07:17:00;1.60;99.90
24250;DHT22;12379;49.820;8.648;2023-03-01T07:19:26;1.50;99.90
24250;DHT22;12379;49.820;8.648;2023-03-01T07:21:52;1.70;99.90
24250;DHT22;12379;49.820;8.648;2023-03-01T07:24:17;1.80;99.90
24250;DHT22;12379;49.820;8.648;2023-03-01T07:26:43;2.20;99.90
24250;DHT22;12379;49.820;8.648;2023-03-01T07:29:10;3.20;99.90
24250;DHT22;12379;49.820;8.648;2023-03-01T07:31:36;4.00;99.90
24250;DHT22;12379;49.820;8.648;2023-03-01T07:34:02;4.50;99.90
24250;DHT22;12379;49.820;8.648;2023-03-01T07:36:28;5.50;98.80
24250;DHT22;12379;49.820;8.648;2023-03-01T07:38:54;5.70;97.30
24250;DHT22;12379;49.820;8.648;2023-03-01T07:41:21;5.90;97.60
24250;DHT22;12379;49.820;8.648;2023-03-01T07:43:46;6.50;94.30
24250;DHT22;12379;49.820;8.648;2023-03-01T07:46:12;6.30;93.80
24250;DHT22;12379;49.820;8.648;2023-03-01T07:48:37;6.30;94.10
24250;DHT22;12379;49.820;8.648;2023-03-01T07:51:04;6.70;93.10
24250;DHT22;12379;49.820;8.648;2023-03-01T07:53:31;6.90;92.30
24250;DHT22;12379;49.820;8.648;2023-03-01T07:56:08;7.20;92.20
24250;DHT22;12379;49.820;8.648;2023-03-01T07:58:35;7.20;91.70
24250;DHT22;12379;49.820;8.648;2023-03-01T08:01:05;7.20;91.30
24250;DHT22;12379;49.820;8.648;2023-03-01T08:03:31;7.50;90.20
24250;DHT22;12379;49.820;8.648;2023-03-01T08:05:59;7.20;90.30
24250;DHT22;12379;49.820;8.648;2023-03-01T08:08:25;7.30;90.10
24250;DHT22;12379;49.820;8.648;2023-03-01T08:10:51;7.70;90.00
24250;DHT22;12379;49.820;8.648;2023-03-01T08:13:16;8.00;89.40
24250;DHT22;12379;49.820;8.648;2023-03-01T08:15:50;7.90;87.90
24250;DHT22;12379;49.820;8.648;2023-03-01T08:18:17;8.20;87.40
24250;DHT22;12379;49.820;8.648;2023-03-01T08:20:42;7.80;86.10
24250;DHT22;12379;49.820;8.648;2023-03-01T08:23:08;7.50;87.90
24250;DHT22;12379;49.820;8.648;2023-03-01T08:25:34;7.90;86.50
24250;DHT22;12379;49.820;8.648;2023-03-01T08:27:59;8.10;87.10
24250;DHT22;12379;49.820;8.648;2023-03-01T08:30:25;8.20;84.70
24250;DHT22;12379;49.820;8.648;2023-03-01T08:32:51;8.00;83.50
24250;DHT22;12379;49.820;8.648;2023-03-01T08:35:17;8.00;85.90
24250;DHT22;12379;49.820;8.648;2023-03-01T08:37:42;8.10;83.80
24250;DHT22;12379;49.820;8.648;2023-03-01T08:40:09;7.60;84.00
24250;DHT22;12379;49.820;8.648;2023-03-01T08:42:36;7.90;85.90
24250;DHT22;12379;49.820;8.648;2023-03-01T08:45:05;8.30;83.60
24250;DHT22;12379;49.820;8.648;2023-03-01T08:47:30;9.20;82.90
24250;DHT22;12379;49.820;8.648;2023-03-01T08:49:56;9.50;79.50
24250;DHT22;12379;49.820;8.648;2023-03-01T08:52:21;9.10;79.60
24250;DHT22;12379;49.820;8.648;2023-03-01T08:54:48;9.10;80.30
24250;DHT22;12379;49.820;8.648;2023-03-01T08:57:14;10.20;76.20
24250;DHT22;12379;49.820;8.648;2023-03-01T08:59:39;10.20;74.00
24250;DHT22;12379;49.820;8.648;2023-03-01T09:02:17;9.70;77.00
24250;DHT22;12379;49.820;8.648;2023-03-01T09:04:43;10.20;73.70
24250;DHT22;12379;49.820;8.648;2023-03-01T09:07:10;9.90;74.70
24250;DHT22;12379;49.820;8.648;2023-03-01T09:09:36;9.40;74.60
24250;DHT22;12379;49.820;8.648;2023-03-01T09:12:02;9.30;76.10
24250;DHT22;12379;49.820;8.648;2023-03-01T09:14:28;9.60;75.10
24250;DHT22;12379;49.820;8.648;2023-03-01T09:16:54;9.90;75.00
24250;DHT22;12379;49.820;8.648;2023-03-01T09:19:19;9.50;75.50
24250;DHT22;12379;49.820;8.648;2023-03-01T09:21:45;9.60;74.50
24250;DHT22;12379;49.820;8.648;2023-03-01T09:24:18;9.80;73.80
24250;DHT22;12379;49.820;8.648;2023-03-01T09:26:44;9.90;74.00
24250;DHT22;12379;49.820;8.648;2023-03-01T09:29:12;10.10;73.00
24250;DHT22;12379;49.820;8.648;2023-03-01T09:31:38;10.00;73.70
24250;DHT22;12379;49.820;8.648;2023-03-01T09:34:04;10.60;71.30
24250;DHT22;12379;49.820;8.648;2023-03-01T09:36:30;9.90;72.90
24250;DHT22;12379;49.820;8.648;2023-03-01T09:38:57;9.90;72.00
24250;DHT22;12379;49.820;8.648;2023-03-01T09:44:36;8.70;74.10
24250;DHT22;12379;49.820;8.648;2023-03-01T09:47:04;8.80;74.60
24250;DHT22;12379;49.820;8.648;2023-03-01T09:49:41;8.70;73.30
24250;DHT22;12379;49.820;8.648;2023-03-01T09:54:55;8.40;75.70
24250;DHT22;12379;49.820;8.648;2023-03-01T09:57:59;9.90;73.70
24250;DHT22;12379;49.820;8.648;2023-03-01T10:00:42;10.60;69.90
24250;DHT22;12379;49.820;8.648;2023-03-01T10:03:22;10.80;68.20
24250;DHT22;12379;49.820;8.648;2023-03-01T10:05:59;10.60;67.60
24250;DHT22;12379;49.820;8.648;2023-03-01T10:10:53;9.50;69.90
24250;DHT22;12379;49.820;8.648;2023-03-01T10:13:32;9.40;71.10
24250;DHT22;12379;49.820;8.648;2023-03-01T10:18:37;11.30;65.70
24250;DHT22;12379;49.820;8.648;2023-03-01T10:21:15;10.60;65.90
24250;DHT22;12379;49.820;8.648;2023-03-01T10:23:42;10.20;66.50
24250;DHT22;12379;49.820;8.648;2023-03-01T10:29:09;10.30;67.20
24250;DHT22;12379;49.820;8.648;2023-03-01T10:31:48;10.80;65.00
24250;DHT22;12379;49.820;8.648;2023-03-01T10:34:32;11.10;64.80
24250;DHT22;12379;49.820;8.648;2023-03-01T10:37:13;10.80;65.10
24250;DHT22;12379;49.820;8.648;2023-03-01T10:39:57;10.60;64.40
24250;DHT22;12379;49.820;8.648;2023-03-01T10:42:45;9.90;67.70
24250;DHT22;12379;49.820;8.648;2023-03-01T10:47:42;9.80;68.80
24250;DHT22;12379;49.820;8.648;2023-03-01T10:50:19;9.90;68.50
24250;DHT22;12379;49.820;8.648;2023-03-01T10:53:03;9.90;67.20
24250;DHT22;12379;49.820;8.648;2023-03-01T10:55:40;9.70;67.90
24250;DHT22;12379;49.820;8.648;2023-03-01T11:00:47;10.10;66.70
24250;DHT22;12379;49.820;8.648;2023-03-01T11:03:18;10.30;65.40
24250;DHT22;12379;49.820;8.648;2023-03-01T11:05:54;10.30;64.80
24250;DHT22;12379;49.820;8.648;2023-03-01T11:08:40;10.20;65.20
24250;DHT22;12379;49.820;8.648;2023-03-01T11:11:33;11.50;64.30
24250;DHT22;12379;49.820;8.648;2023-03-01T11:16:38;9.70;66.50
24250;DHT22;12379;49.820;8.648;2023-03-01T11:19:13;9.20;67.00
24250;DHT22;12379;49.820;8.648;2023-03-01T11:22:03;9.20;67.10
24250;DHT22;12379;49.820;8.648;2023-03-01T11:27:02;8.80;68.90
24250;DHT22;12379;49.820;8.648;2023-03-01T11:30:37;8.00;69.70
24250;DHT22;12379;49.820;8.648;2023-03-01T11:32:38;7.60;71.00
24250;DHT22;12379;49.820;8.648;2023-03-01T11:35:18;7.80;71.60
24250;DHT22;12379;49.820;8.648;2023-03-01T11:40:29;8.10;71.50
24250;DHT22;12379;49.820;8.648;2023-03-01T11:43:26;7.80;72.20
24250;DHT22;12379;49.820;8.648;2023-03-01T11:46:24;8.00;72.40
24250;DHT22;12379;49.820;8.648;2023-03-01T11:48:46;8.10;71.80
24250;DHT22;12379;49.820;8.648;2023-03-01T11:51:25;8.30;71.90
24250;DHT22;12379;49.820;8.648;2023-03-01T11:56:54;8.30;70.20
24250;DHT22;12379;49.820;8.648;2023-03-01T12:07:56;7.80;71.30
24250;DHT22;12379;49.820;8.648;2023-03-01T12:10:43;7.90;72.30
24250;DHT22;12379;49.820;8.648;2023-03-01T12:15:58;8.30;70.50
24250;DHT22;12379;49.820;8.648;2023-03-01T12:18:45;8.30;70.70
24250;DHT22;12379;49.820;8.648;2023-03-01T12:27:34;8.40;69.30
24250;DHT22;12379;49.820;8.648;2023-03-01T12:30:37;8.60;68.80
24250;DHT22;12379;49.820;8.648;2023-03-01T12:44:32;8.90;67.60
24250;DHT22;12379;49.820;8.648;2023-03-01T12:47:17;9.10;66.60
24250;DHT22;12379;49.820;8.648;2023-03-01T12:49:54;9.10;65.80
24250;DHT22;12379;49.820;8.648;2023-03-01T12:52:42;9.20;65.90
24250;DHT22;12379;49.820;8.648;2023-03-01T12:55:39;9.20;65.40
24250;DHT22;12379;49.820;8.648;2023-03-01T13:01:25;9.30;65.80
24250;DHT22;12379;49.820;8.648;2023-03-01T13:15:35;9.60;65.30
24250;DHT22;12379;49.820;8.648;2023-03-01T13:23:27;9.70;65.40
24250;DHT22;12379;49.820;8.648;2023-03-01T13:31:01;9.60;65.70
24250;DHT22;12379;49.820;8.648;2023-03-01T13:35:57;9.60;65.50
24250;DHT22;12379;49.820;8.648;2023-03-01T13:38:54;9.60;66.00
24250;DHT22;12379;49.820;8.648;2023-03-01T13:44:30;9.60;65.60
24250;DHT22;12379;49.820;8.648;2023-03-01T13:47:15;9.50;65.60
24250;DHT22;12379;49.820;8.648;2023-03-01T13:49:53;9.40;65.30
24250;DHT22;12379;49.820;8.648;2023-03-01T13:52:44;9.40;66.80
24250;DHT22;12379;49.820;8.648;2023-03-01T13:55:43;9.30;65.60
24250;DHT22;12379;49.820;8.648;2023-03-01T13:58:24;9.40;66.10
24250;DHT22;12379;49.820;8.648;2023-03-01T14:01:03;9.20;65.50
24250;DHT22;12379;49.820;8.648;2023-03-01T14:03:31;9.40;65.60
24250;DHT22;12379;49.820;8.648;2023-03-01T14:06:15;9.30;65.20
24250;DHT22;12379;49.820;8.648;2023-03-01T14:08:44;9.20;65.30
24250;DHT22;12379;49.820;8.648;2023-03-01T14:19:34;9.20;64.90
24250;DHT22;12379;49.820;8.648;2023-03-01T14:27:40;9.50;64.40
24250;DHT22;12379;49.820;8.648;2023-03-01T14:30:46;9.50;64.60
24250;DHT22;12379;49.820;8.648;2023-03-01T14:33:27;9.50;63.50
24250;DHT22;12379;49.820;8.648;2023-03-01T14:36:10;9.40;63.50
24250;DHT22;12379;49.820;8.648;2023-03-01T14:38:39;9.40;63.60
24250;DHT22;12379;49.820;8.648;2023-03-01T14:41:20;9.50;64.30
24250;DHT22;12379;49.820;8.648;2023-03-01T14:43:52;9.50;63.80
24250;DHT22;12379;49.820;8.648;2023-03-01T14:46:43;9.50;64.40
24250;DHT22;12379;49.820;8.648;2023-03-01T14:49:19;9.50;65.00
24250;DHT22;12379;49.820;8.648;2023-03-01T14:52:02;9.40;65.10
24250;DHT22;12379;49.820;8.648;2023-03-01T14:54:39;9.30;65.70
24250;DHT22;12379;49.820;8.648;2023-03-01T14:57:05;9.40;66.30
24250;DHT22;12379;49.820;8.648;2023-03-01T14:59:33;9.40;66.60
24250;DHT22;12379;49.820;8.648;2023-03-01T15:02:00;9.50;66.50
24250;DHT22;12379;49.820;8.648;2023-03-01T15:04:26;9.40;65.70
24250;DHT22;12379;49.820;8.648;2023-03-01T15:06:57;9.20;66.30
24250;DHT22;12379;49.820;8.648;2023-03-01T15:09:30;9.20;66.30
24250;DHT22;12379;49.820;8.648;2023-03-01T15:11:57;9.10;66.80
24250;DHT22;12379;49.820;8.648;2023-03-01T15:14:41;9.00;66.50
24250;DHT22;12379;49.820;8.648;2023-03-01T15:17:30;9.00;67.10
24250;DHT22;12379;49.820;8.648;2023-03-01T15:19:57;8.90;67.90
24250;DHT22;12379;49.820;8.648;2023-03-01T15:22:25;9.00;68.90
24250;DHT22;12379;49.820;8.648;2023-03-01T15:24:51;9.00;68.50
24250;DHT22;12379;49.820;8.648;2023-03-01T15:27:20;9.00;69.00
24250;DHT22;12379;49.820;8.648;2023-03-01T15:29:52;9.00;69.20
24250;DHT22;12379;49.820;8.648;2023-03-01T15:32:25;8.90;69.00
24250;DHT22;12379;49.820;8.648;2023-03-01T15:34:51;8.80;69.90
24250;DHT22;12379;49.820;8.648;2023-03-01T15:37:45;8.80;70.10
24250;DHT22;12379;49.820;8.648;2023-03-01T15:40:20;8.80;70.10
24250;DHT22;12379;49.820;8.648;2023-03-01T15:42:46;8.80;70.50
24250;DHT22;12379;49.820;8.648;2023-03-01T15:45:31;8.70;70.50
24250;DHT22;12379;49.820;8.648;2023-03-01T15:48:04;8.60;70.70
24250;DHT22;12379;49.820;8.648;2023-03-01T15:50:33;8.50;70.90
24250;DHT22;12379;49.820;8.648;2023-03-01T15:53:01;8.50;71.20
24250;DHT22;12379;49.820;8.648;2023-03-01T15:55:29;8.50;71.20
24250;DHT22;12379;49.820;8.648;2023-03-01T15:58:03;8.50;71.50
24250;DHT22;12379;49.820;8.648;2023-03-01T16:00:29;8.50;72.10
24250;DHT22;12379;49.820;8.648;2023-03-01T16:02:55;8.50;71.80
24250;DHT22;12379;49.820;8.648;2023-03-01T16:05:25;8.40;72.10
24250;DHT22;12379;49.820;8.648;2023-03-01T16:07:51;8.40;72.10
24250;DHT22;12379;49.820;8.648;2023-03-01T16:10:17;8.40;72.60
24250;DHT22;12379;49.820;8.648;2023-03-01T16:12:43;8.30;72.50
24250;DHT22;12379;49.820;8.648;2023-03-01T16:15:24;8.20;72.90
24250;DHT22;12379;49.820;8.648;2023-03-01T16:17:50;8.20;72.80
24250;DHT22;12379;49.820;8.648;2023-03-01T16:20:17;8.20;73.30
24250;DHT22;12379;49.820;8.648;2023-03-01T16:22:44;8.10;73.60
24250;DHT22;12379;49.820;8.648;2023-03-01T16:25:15;8.10;73.70
24250;DHT22;12379;49.820;8.648;2023-03-01T16:27:42;8.10;73.60
24250;DHT22;12379;49.820;8.648;2023-03-01T16:30:08;8.00;73.50
24250;DHT22;12379;49.820;8.648;2023-03-01T16:32:38;8.00;73.80
24250;DHT22;12379;49.820;8.648;2023-03-01T16:35:05;7.90;74.10
24250;DHT22;12379;49.820;8.648;2023-03-01T16:37:32;7.80;74.40
24250;DHT22;12379;49.820;8.648;2023-03-01T16:39:59;7.70;74.70
24250;DHT22;12379;49.820;8.648;2023-03-01T16:42:24;7.70;74.80
24250;DHT22;12379;49.820;8.648;2023-03-01T16:44:57;7.60;75.20
24250;DHT22;12379;49.820;8.648;2023-03-01T16:47:22;7.50;75.10
24250;DHT22;12379;49.820;8.648;2023-03-01T16:49:52;7.40;75.50
24250;DHT22;12379;49.820;8.648;2023-03-01T16:52:18;7.40;75.80
24250;DHT22;12379;49.820;8.648;2023-03-01T16:54:43;7.30;76.30
24250;DHT22;12379;49.820;8.648;2023-03-01T16:57:09;7.20;76.50
24250;DHT22;12379;49.820;8.648;2023-03-01T16:59:34;7.20;77.10
24250;DHT22;12379;49.820;8.648;2023-03-01T17:02:00;7.00;77.50
24250;DHT22;12379;49.820;8.648;2023-03-01T17:04:25;7.00;77.90
24250;DHT22;12379;49.820;8.648;2023-03-01T17:06:51;6.90;78.50
24250;DHT22;12379;49.820;8.648;2023-03-01T17:09:16;6.80;78.60
24250;DHT22;12379;49.820;8.648;2023-03-01T17:11:42;6.70;79.00
24250;DHT22;12379;49.820;8.648;2023-03-01T17:14:08;6.70;79.50
24250;DHT22;12379;49.820;8.648;2023-03-01T17:16:34;6.60;79.70
24250;DHT22;12379;49.820;8.648;2023-03-01T17:19:00;6.60;80.20
24250;DHT22;12379;49.820;8.648;2023-03-01T17:21:26;6.50;80.40
24250;DHT22;12379;49.820;8.648;2023-03-01T17:23:55;6.40;80.80
24250;DHT22;12379;49.820;8.648;2023-03-01T17:26:21;6.40;81.00
24250;DHT22;12379;49.820;8.648;2023-03-01T17:28:47;6.40;81.40
24250;DHT22;12379;49.820;8.648;2023-03-01T17:31:17;6.30;81.60
24250;DHT22;12379;49.820;8.648;2023-03-01T17:33:43;6.20;81.80
24250;DHT22;12379;49.820;8.648;2023-03-01T17:36:08;6.20;82.20
24250;DHT22;12379;49.820;8.648;2023-03-01T17:38:34;6.10;82.40
24250;DHT22;12379;49.820;8.648;2023-03-01T17:41:02;6.10;82.50
24250;DHT22;12379;49.820;8.648;2023-03-01T17:43:28;6.00;82.80
24250;DHT22;12379;49.820;8.648;2023-03-01T17:45:54;5.90;83.30
24250;DHT22;12379;49.820;8.648;2023-03-01T17:48:23;5.90;83.60
24250;DHT22;12379;49.820;8.648;2023-03-01T17:50:50;5.80;83.80